Time;durP1;ratioP1;P1;durP2;ratioP2;P2;SDS_P1;SDS_P2;PMS_P1;PMS_P2;Temp;Humidity;BMP_temperature;BMP_pressure;BME280_temperature;BME280_humidity;BME280_pressure;Samples;Min_cycle;Max_cycle;Signal;HPM_P1;HPM_P2
2022/06/29 00:00:28;;;;;;;1.60;0.90;;;24.60;86.10;;;23.14;51.84;101618.81;5034204;28;20044;-45
2022/06/29 00:02:55;;;;;;;1.17;0.50;;;;;;;23.14;51.77;101619.66;5033518;28;20053;-45
2022/06/29 00:05:24;;;;;;;1.90;0.80;;;24.60;54.80;;;23.13;51.81;101622.69;5033885;28;20069;-46
2022/06/29 00:07:51;;;;;;;1.15;0.85;;;24.90;86.40;;;23.12;51.89;101616.28;5032778;28;20072;-45
2022/06/29 00:10:18;;;;;;;3.28;0.60;;;24.30;56.10;;;23.11;51.60;101614.56;5033988;28;20037;-45
2022/06/29 00:12:45;;;;;;;0.85;0.57;;;24.70;86.50;;;23.11;51.84;101613.69;5034087;28;20477;-45
2022/06/29 00:15:15;;;;;;;1.23;0.80;;;24.70;86.20;;;23.10;51.92;101612.84;5034082;28;20451;-45
2022/06/29 00:17:40;;;;;;;1.40;0.55;;;24.80;86.80;;;23.11;51.57;101608.16;5034027;28;20125;-46
2022/06/29 00:20:12;;;;;;;1.92;0.90;;;24.30;86.40;;;23.09;51.76;101610.31;5033882;28;20041;-46
2022/06/29 00:22:42;;;;;;;1.20;0.68;;;24.80;86.90;;;23.09;51.48;101602.84;5033981;28;20107;-46
2022/06/29 00:25:10;;;;;;;1.17;0.60;;;24.80;86.80;;;23.09;51.80;101605.63;5033733;28;20026;-45
2022/06/29 00:27:36;;;;;;;3.42;0.82;;;24.70;86.80;;;23.09;51.63;101599.22;5033662;28;20025;-46
2022/06/29 00:30:03;;;;;;;1.42;0.90;;;24.60;86.40;;;23.09;51.79;101602.00;5033628;28;20042;-45
2022/06/29 00:32:30;;;;;;;2.67;0.80;;;24.40;74.00;;;23.09;51.48;101599.22;5033604;28;20492;-45
2022/06/29 00:34:57;;;;;;;1.25;0.60;;;24.10;86.60;;;23.08;51.57;101597.50;5033424;28;20040;-45
2022/06/29 00:37:23;;;;;;;1.85;0.77;;;;;;;23.07;51.62;101591.09;5033701;28;20021;-46
2022/06/29 00:39:49;;;;;;;1.48;0.73;;;;;;;23.08;51.61;101589.19;5033341;28;20033;-45
2022/06/29 00:42:15;;;;;;;1.58;0.70;;;;;;;23.07;51.55;101593.06;5033209;28;20033;-45
2022/06/29 00:44:41;;;;;;;3.50;0.82;;;;;;;23.06;51.51;101589.41;5033222;28;20040;-47
2022/06/29 00:47:07;;;;;;;0.93;0.65;;;;;;;23.08;51.52;101589.19;5033511;28;20022;-45
2022/06/29 00:49:34;;;;;;;1.02;0.70;;;24.80;70.60;;;23.07;51.56;101591.09;5033556;28;20032;-52
2022/06/29 00:52:08;;;;;;;1.63;0.90;;;24.70;87.00;;;23.07;51.47;101587.50;5033170;28;20120;-51
2022/06/29 00:54:42;;;;;;;1.77;0.82;;;24.70;86.80;;;23.06;51.46;101583.88;5033188;28;20037;-53
2022/06/29 00:57:18;;;;;;;1.30;0.60;;;24.70;87.10;;;23.05;51.45;101581.31;5033138;28;20037;-54
2022/06/29 00:59:47;;;;;;;2.63;0.88;;;24.80;87.00;;;23.05;51.45;101573.84;5033096;28;20029;-52
2022/06/29 01:02:16;;;;;;;1.77;0.60;;;24.70;73.00;;;23.05;51.31;101575.75;5032943;28;20050;-51
2022/06/29 01:04:44;;;;;;;1.10;0.70;;;24.80;87.10;;;23.04;51.57;101580.44;5032981;28;20087;-51
2022/06/29 01:07:13;;;;;;;1.58;0.60;;;24.60;86.70;;;23.04;51.46;101571.31;5033010;28;20570;-45
2022/06/29 01:09:40;;;;;;;2.20;0.70;;;24.40;70.90;;;23.04;51.39;101574.91;5032928;28;20034;-46
2022/06/29 01:12:06;;;;;;;1.77;0.60;;;24.70;87.10;;;23.03;51.45;101567.66;5031563;28;20407;-45
2022/06/29 01:14:32;;;;;;;1.60;0.70;;;24.80;87.60;;;23.03;51.37;101566.81;5032862;28;20476;-46
2022/06/29 01:16:57;;;;;;;0.85;0.52;;;24.80;87.50;;;23.04;51.53;101560.19;5032689;28;20032;-44
2022/06/29 01:19:24;;;;;;;0.82;0.43;;;24.60;81.60;;;23.01;51.37;101558.69;5032971;28;20065;-46
2022/06/29 01:21:52;;;;;;;2.78;0.40;;;24.10;87.60;;;23.02;51.30;101559.56;5032589;28;20029;-46
2022/06/29 01:24:22;;;;;;;0.80;0.60;;;24.60;88.00;;;23.01;51.59;101555.91;5032671;28;20107;-53
2022/06/29 01:26:49;;;;;;;1.08;0.70;;;24.40;88.00;;;23.01;51.43;101566.19;5032684;28;20033;-45
2022/06/29 01:29:16;;;;;;;3.42;0.90;;;24.50;55.20;;;23.00;51.59;101572.81;5032331;28;20041;-45
2022/06/29 01:31:42;;;;;;;2.00;0.80;;;24.70;88.80;;;22.99;51.52;101566.41;5032494;28;20484;-45
2022/06/29 01:34:08;;;;;;;1.75;0.82;;;24.70;71.10;;;22.99;51.46;101574.72;5032465;28;20037;-45
2022/06/29 01:36:34;;;;;;;0.82;0.63;;;24.80;88.60;;;23.00;51.21;101573.66;5032406;28;20082;-45
2022/06/29 01:39:00;;;;;;;1.02;0.70;;;24.70;88.40;;;22.98;51.45;101567.50;5032457;28;20514;-45
2022/06/29 01:41:26;;;;;;;0.90;0.40;;;;;;;22.97;51.53;101563.03;5032460;28;20029;-45
2022/06/29 01:43:52;;;;;;;0.90;0.60;;;24.50;88.10;;;22.99;51.48;101568.31;5032312;28;20502;-51
2022/06/29 01:46:18;;;;;;;0.98;0.52;;;24.30;87.70;;;22.98;51.41;101570.28;5032393;28;20038;-54
2022/06/29 01:48:43;;;;;;;1.17;0.52;;;23.90;87.10;;;22.96;51.41;101571.56;5032322;28;20041;-53
2022/06/29 01:51:09;;;;;;;1.10;0.77;;;24.50;86.90;;;22.96;51.31;101563.22;5032294;28;20034;-52
2022/06/29 01:53:35;;;;;;;1.98;0.70;;;;;;;22.96;51.38;101566.00;5032177;28;20044;-53
2022/06/29 01:56:01;;;;;;;2.22;0.82;;;24.60;67.10;;;22.96;51.57;101558.53;5032494;28;20385;-49
2022/06/29 01:58:27;;;;;;;1.00;0.60;;;;;;;22.95;51.45;101565.19;5032416;28;20033;-52
2022/06/29 02:00:53;;;;;;;1.02;0.60;;;;;;;22.95;51.62;101561.56;5031686;28;20040;-45
2022/06/29 02:03:19;;;;;;;1.52;0.70;;;;;;;22.96;51.40;101566.00;5031909;28;20057;-45
2022/06/29 02:05:45;;;;;;;1.67;0.90;;;;;;;22.95;51.38;101556.00;5032069;28;20553;-46
2022/06/29 02:08:11;;;;;;;2.83;0.80;;;;;;;22.94;51.64;101557.91;5032130;28;20040;-45
2022/06/29 02:10:37;;;;;;;1.60;0.82;;;;;;;22.94;51.42;101554.28;5032068;28;20112;-45
2022/06/29 02:13:04;;;;;;;1.30;0.45;;;24.50;68.60;;;22.94;51.40;101554.28;5032329;28;20100;-46
2022/06/29 02:15:29;;;;;;;0.82;0.63;;;24.00;87.50;;;22.93;51.51;101552.59;5032057;28;20107;-45
2022/06/29 02:17:55;;;;;;;0.77;0.55;;;24.60;82.10;;;22.92;51.45;101546.22;5032115;28;20026;-44
2022/06/29 02:20:21;;;;;;;2.40;0.65;;;;;;;22.91;51.62;101550.06;5032024;28;20119;-47
2022/06/29 02:22:47;;;;;;;0.75;0.43;;;;;;;22.90;51.50;101542.78;5031981;28;20037;-46
2022/06/29 02:25:13;;;;;;;1.60;0.70;;;;;;;22.90;51.56;101542.78;5031974;28;20132;-45
2022/06/29 02:27:45;;;;;;;0.32;0.30;;;24.40;66.80;;;22.89;51.38;101549.44;5031897;28;20033;-45
2022/06/29 02:30:15;;;;;;;1.80;0.70;;;24.40;55.00;;;22.90;51.54;101540.03;5031932;28;20092;-46
2022/06/29 02:35:31;;;;;;;1.67;0.77;;;24.40;56.10;;;22.88;51.49;101533.00;5031948;28;20044;-46
2022/06/29 02:37:57;;;;;;;1.05;0.70;;;;;;;22.87;51.69;101534.91;5031958;28;20045;-54
2022/06/29 02:40:23;;;;;;;2.95;0.65;;;24.30;57.60;;;22.85;51.47;101528.75;5032141;28;20038;-53
2022/06/29 02:42:49;;;;;;;0.93;0.77;;;24.30;79.80;;;22.86;51.55;101526.84;5035864;28;20037;-52
2022/06/29 02:45:15;;;;;;;1.23;0.80;;;23.70;61.30;;;22.86;51.48;101521.28;5035820;28;20033;-53
2022/06/29 02:47:41;;;;;;;1.80;0.70;;;;;;;22.86;51.47;101526.84;5035618;28;20111;-54
2022/06/29 02:50:08;;;;;;;0.93;0.50;;;24.20;67.10;;;22.84;51.48;101524.28;5035505;28;20035;-51
2022/06/29 02:52:33;;;;;;;1.13;0.70;;;24.40;87.20;;;22.85;51.32;101519.56;5035755;28;20044;-54
2022/06/29 02:54:59;;;;;;;0.50;0.50;;;24.40;63.50;;;22.85;51.62;101525.97;5035429;28;20041;-51
2022/06/29 02:57:25;;;;;;;1.70;0.80;;;;;;;22.84;51.60;101517.88;5035402;28;20056;-45
2022/06/29 02:59:51;;;;;;;1.23;0.40;;;;;;;22.83;51.68;101511.50;5035332;28;20033;-45
2022/06/29 03:02:17;;;;;;;1.88;0.57;;;;;;;22.84;51.47;101509.56;5034913;28;20064;-46
2022/06/29 03:04:43;;;;;;;1.05;0.70;;;24.30;85.60;;;22.81;51.68;101513.63;5035312;28;20029;-47
2022/06/29 03:07:09;;;;;;;0.95;0.60;;;;;;;22.82;51.55;101511.72;5035201;28;20048;-45
2022/06/29 03:09:35;;;;;;;0.65;0.60;;;;;;;22.82;51.40;101512.56;5035134;28;20041;-45
2022/06/29 03:12:01;;;;;;;5.25;1.08;;;24.20;65.10;;;22.81;51.46;101510.84;5035057;28;20038;-45
2022/06/29 03:14:27;;;;;;;0.80;0.50;;;;;;;22.81;51.54;101510.84;5033912;28;20056;-46
2022/06/29 03:16:53;;;;;;;1.15;0.60;;;;;;;22.81;51.64;101501.69;5035029;28;20033;-49
2022/06/29 03:19:19;;;;;;;0.60;0.60;;;24.40;79.20;;;22.80;51.37;101502.78;5034923;28;20025;-53
2022/06/29 03:21:45;;;;;;;1.60;0.70;;;;;;;22.81;51.46;101501.69;5034866;28;20087;-50
2022/06/29 03:24:11;;;;;;;0.75;0.50;;;24.20;73.60;;;22.79;51.69;101504.69;5034846;28;20038;-53
2022/06/29 03:26:37;;;;;;;1.00;0.70;;;;;;;22.79;51.56;101509.38;5034805;28;20043;-50
2022/06/29 03:29:03;;;;;;;1.35;0.70;;;;;;;22.77;51.54;101493.00;5034778;28;20088;-53
2022/06/29 03:31:29;;;;;;;1.52;0.60;;;;;;;22.78;51.56;101493.81;5034685;28;20033;-53
2022/06/29 03:33:55;;;;;;;1.02;0.57;;;24.00;71.60;;;22.76;51.57;101491.28;5034748;28;20034;-46
2022/06/29 03:36:21;;;;;;;1.10;0.70;;;;;;;22.77;51.55;101489.34;5034666;28;20033;-45
2022/06/29 03:38:47;;;;;;;0.70;0.50;;;;;;;22.77;51.66;101490.22;5034589;28;20112;-46
2022/06/29 03:41:13;;;;;;;1.55;0.73;;;24.40;66.80;;;22.77;51.70;101490.22;5034586;28;20444;-45
2022/06/29 03:43:39;;;;;;;1.52;0.90;;;;;;;22.76;51.54;101498.75;5034439;28;20065;-47
2022/06/29 03:46:05;;;;;;;0.93;0.60;;;;;;;22.75;51.52;101494.25;5034423;28;20043;-46
2022/06/29 03:48:31;;;;;;;0.85;0.68;;;;;;;22.77;51.56;101494.91;5034416;28;20044;-45
2022/06/29 03:50:57;;;;;;;1.15;0.63;;;;;;;22.75;51.65;101491.50;5034259;28;20079;-45
2022/06/29 03:53:23;;;;;;;1.20;0.70;;;;;;;22.75;51.74;101483.16;5032675;28;20044;-52
2022/06/29 03:55:49;;;;;;;0.70;0.60;;;;;;;22.74;51.76;101489.81;5034312;28;20123;-52
2022/06/29 03:58:15;;;;;;;2.00;0.70;;;24.40;67.20;;;22.73;51.54;101490.88;5034504;28;20048;-53
2022/06/29 04:00:41;;;;;;;1.90;0.70;;;;;;;22.73;51.68;101488.97;5034230;28;20484;-52
2022/06/29 04:03:07;;;;;;;0.80;0.63;;;;;;;22.73;51.60;101482.56;5043307;28;20045;-52
2022/06/29 04:05:33;;;;;;;3.72;0.77;;;24.30;64.80;;;22.73;51.60;101490.88;5034113;28;20034;-51
2022/06/29 04:07:59;;;;;;;1.60;0.85;;;;;;;22.73;51.46;101488.09;5032877;28;20039;-51
2022/06/29 04:10:25;;;;;;;0.93;0.70;;;;;;;22.72;51.61;101480.88;5033977;28;20037;-50
2022/06/29 04:12:51;;;;;;;1.38;0.70;;;;;;;22.71;51.69;101480.03;5034258;28;20036;-51
2022/06/29 04:15:17;;;;;;;1.52;0.80;;;24.40;61.50;;;22.71;51.54;101487.50;5033879;28;20037;-51
2022/06/29 04:17:43;;;;;;;0.70;0.60;;;;;;;22.72;51.54;101484.47;5033859;28;20039;-52
2022/06/29 04:21:05;;;;;;;1.42;0.73;;;23.80;57.90;;;22.69;51.71;101480.22;5033818;28;20478;-51
2022/06/29 04:22:55;;;;;;;3.28;0.95;;;24.30;85.10;;;22.70;51.81;101475.53;5033566;28;20048;-51
2022/06/29 04:25:21;;;;;;;0.90;0.68;;;;;;;22.68;51.64;101478.56;5033625;28;20034;-51
2022/06/29 04:27:47;;;;;;;2.05;0.70;;;23.80;65.90;;;22.68;51.54;101474.94;5033695;28;20392;-51
2022/06/29 04:30:13;;;;;;;1.05;0.70;;;;;;;22.68;51.53;101481.31;5033703;28;20033;-53
2022/06/29 04:32:39;;;;;;;1.73;0.70;;;;;;;22.67;51.71;101474.06;5033585;28;20037;-52
2022/06/29 04:35:06;;;;;;;1.17;0.70;;;24.20;54.80;;;22.67;51.62;101468.53;5033541;28;20042;-54
2022/06/29 04:37:31;;;;;;;1.38;0.70;;;23.80;86.20;;;22.67;51.61;101473.22;5033369;28;20476;-53
2022/06/29 04:40:00;;;;;;;0.68;0.68;;;24.00;64.10;;;22.67;51.62;101474.06;5033482;28;20032;-52
2022/06/29 04:42:26;;;;;;;1.15;0.95;;;24.10;86.40;;;22.67;51.62;101470.44;5033393;28;20044;-53
2022/06/29 04:44:52;;;;;;;0.60;0.60;;;23.80;86.10;;;22.66;51.65;101472.38;5033638;28;20108;-52
2022/06/29 04:47:18;;;;;;;1.20;0.70;;;24.20;86.50;;;22.67;51.57;101473.22;5033615;28;20113;-46
2022/06/29 04:49:44;;;;;;;0.93;0.82;;;23.90;86.20;;;22.67;51.57;101471.28;5033284;28;20467;-46
2022/06/29 04:52:10;;;;;;;1.13;0.60;;;24.20;86.50;;;22.66;51.64;101463.19;5033124;28;20095;-45
2022/06/29 04:54:35;;;;;;;1.40;1.00;;;24.30;72.30;;;22.68;51.62;101470.22;5033138;28;20108;-45
2022/06/29 04:57:01;;;;;;;1.52;0.60;;;24.20;73.00;;;22.66;51.60;101468.72;5033180;28;20025;-46
2022/06/29 04:59:27;;;;;;;0.70;0.60;;;;;;;22.66;51.90;101458.50;5033104;28;20029;-45
2022/06/29 05:01:53;;;;;;;0.70;0.70;;;24.30;65.60;;;22.67;51.87;101456.56;5032838;28;20504;-45
2022/06/29 05:04:19;;;;;;;0.65;0.60;;;;;;;22.65;51.57;101459.59;5032040;28;20077;-45
2022/06/29 05:06:45;;;;;;;1.55;1.05;;;;;;;22.65;51.64;101450.41;5032972;28;20114;-45
2022/06/29 05:09:11;;;;;;;0.90;0.80;;;;;;;22.65;51.52;101453.19;5032904;28;20037;-46
2022/06/29 05:11:37;;;;;;;0.90;0.70;;;;;;;22.64;51.69;101446.78;5032853;28;20033;-45
2022/06/29 05:14:03;;;;;;;1.55;0.65;;;24.40;63.10;;;22.65;51.75;101445.72;5032781;28;20069;-45
2022/06/29 05:16:29;;;;;;;1.08;0.70;;;;;;;22.65;51.61;101444.88;5033073;28;20064;-45
2022/06/29 05:18:55;;;;;;;1.38;0.75;;;;;;;22.65;51.61;101450.41;5032975;28;20025;-44
2022/06/29 05:21:21;;;;;;;1.67;0.90;;;;;;;22.65;51.59;101442.94;5032698;28;20041;-45
2022/06/29 05:23:47;;;;;;;1.27;0.80;;;24.30;80.90;;;22.64;51.61;101435.69;5032596;28;20040;-50
2022/06/29 05:26:13;;;;;;;1.75;0.85;;;24.30;63.50;;;22.64;51.63;101435.69;5032933;28;20033;-49
2022/06/29 05:28:39;;;;;;;0.73;0.63;;;24.20;86.90;;;22.65;51.89;101431.00;5032591;28;20045;-51
2022/06/29 05:31:06;;;;;;;1.77;0.80;;;24.40;74.40;;;22.67;51.69;101438.03;5032534;28;20426;-53
2022/06/29 05:33:36;;;;;;;1.08;0.85;;;24.50;86.70;;;22.67;51.67;101428.84;5032560;28;20120;-51
2022/06/29 05:36:07;;;;;;;0.90;0.70;;;24.30;86.20;;;22.64;51.69;101421.84;5032425;28;20030;-54
2022/06/29 05:38:34;;;;;;;0.63;0.40;;;23.50;55.70;;;22.63;51.64;101422.88;5032516;28;20033;-54
2022/06/29 05:41:00;;;;;;;0.70;0.63;;;23.80;85.90;;;22.64;51.83;101427.38;5032420;28;20034;-54
2022/06/29 05:43:28;;;;;;;1.02;0.88;;;24.40;87.00;;;22.64;52.31;101430.16;5032379;28;20045;-46
2022/06/29 05:45:54;;;;;;;1.70;0.80;;;23.80;86.60;;;22.63;52.29;101427.56;5032358;28;20548;-45
2022/06/29 05:48:20;;;;;;;2.25;0.80;;;24.10;86.70;;;22.63;52.02;101416.47;5032325;28;20132;-47
2022/06/29 05:50:46;;;;;;;1.00;0.90;;;24.00;86.70;;;22.63;51.96;101422.00;5032292;28;20030;-48
2022/06/29 05:53:11;;;;;;;2.55;0.70;;;24.20;86.90;;;22.64;52.10;101418.16;5032247;28;20083;-45
2022/06/29 05:55:37;;;;;;;0.80;0.80;;;24.20;66.40;;;22.63;52.37;101417.31;5032459;28;20496;-45
2022/06/29 05:58:03;;;;;;;3.08;0.70;;;;;;;22.64;52.25;101423.72;5032278;28;20128;-45
2022/06/29 06:00:29;;;;;;;1.98;0.90;;;;;;;22.64;52.10;101420.94;5032193;28;20040;-45
2022/06/29 06:02:55;;;;;;;2.50;0.80;;;;;;;22.63;51.98;101420.09;5032003;28;20065;-51
2022/06/29 06:05:21;;;;;;;0.75;0.75;;;24.10;61.70;;;22.65;51.65;101415.22;5031974;28;20049;-51
2022/06/29 06:07:47;;;;;;;1.02;0.80;;;;;;;22.68;51.85;101412.00;5032091;28;20033;-55
2022/06/29 06:10:13;;;;;;;2.38;0.80;;;;;;;22.74;51.71;101417.69;5032106;28;20450;-53
2022/06/29 06:12:39;;;;;;;2.60;0.80;;;;;;;22.76;51.76;101421.06;5032289;28;20044;-52
2022/06/29 06:15:07;;;;;;;1.30;0.68;;;24.20;86.50;;;22.78;51.74;101419.75;5033327;28;20040;-52
2022/06/29 06:17:33;;;;;;;3.05;1.05;;;;;;;22.80;51.80;101425.09;5036160;28;20033;-54
2022/06/29 06:19:59;;;;;;;3.38;0.80;;;;;;;22.79;52.16;101420.63;5035923;28;20125;-45
2022/06/29 06:22:25;;;;;;;2.72;0.90;;;24.20;70.10;;;22.80;52.17;101427.88;5036233;28;20037;-45
2022/06/29 06:24:51;;;;;;;1.83;1.02;;;;;;;22.78;52.34;101427.22;5036088;28;20040;-44
2022/06/29 06:27:17;;;;;;;1.33;0.85;;;;;;;22.76;52.41;101433.03;5035820;28;20026;-45
2022/06/29 06:29:45;;;;;;;7.20;1.13;;;24.20;76.30;;;22.75;52.24;101427.69;5034573;28;20037;-45
2022/06/29 06:32:11;;;;;;;6.78;1.20;;;;;;;22.75;52.35;101422.13;5035837;28;20065;-45
2022/06/29 06:34:37;;;;;;;5.00;1.25;;;24.00;59.10;;;22.75;52.26;101431.31;5035758;28;20391;-45
2022/06/29 06:37:04;;;;;;;2.65;1.08;;;23.90;61.00;;;22.74;52.17;101428.78;5035724;28;20083;-54
2022/06/29 06:39:30;;;;;;;0.95;0.73;;;23.90;87.00;;;22.75;52.14;101427.69;5035758;28;20397;-44
2022/06/29 06:41:55;;;;;;;2.45;0.90;;;24.10;87.30;;;22.75;52.24;101424.91;5035595;28;20088;-44
2022/06/29 06:44:21;;;;;;;1.90;1.17;;;24.20;68.70;;;22.76;52.40;101440.50;5035528;28;20069;-44
2022/06/29 06:46:48;;;;;;;2.90;0.73;;;;;;;22.78;52.12;101430.00;5035802;28;20026;-45
2022/06/29 06:49:23;;;;;;;3.90;1.10;;;24.50;87.60;;;22.78;52.20;101432.78;5035496;28;20036;-45
2022/06/29 06:51:52;;;;;;;2.67;0.73;;;24.70;55.40;;;22.78;52.15;101427.22;5035586;28;20464;-45
2022/06/29 06:54:18;;;;;;;3.03;1.00;;;24.20;87.20;;;22.81;52.01;101441.50;5035653;28;20040;-46
2022/06/29 06:56:44;;;;;;;1.33;0.82;;;23.80;86.90;;;22.82;52.04;101434.88;5035576;28;20095;-55
2022/06/29 06:59:10;;;;;;;3.70;0.93;;;24.30;81.60;;;22.81;52.11;101435.09;5035323;28;20033;-54
2022/06/29 07:01:36;;;;;;;2.50;0.82;;;24.50;87.30;;;22.80;52.00;101425.97;5035171;28;20050;-55
2022/06/29 07:04:02;;;;;;;4.60;1.27;;;24.40;87.60;;;22.83;52.44;101438.53;5034870;28;20512;-56
2022/06/29 07:06:27;;;;;;;3.72;1.20;;;24.10;83.20;;;22.81;52.53;101426.78;5035031;28;20506;-54
2022/06/29 07:08:54;;;;;;;2.50;1.00;;;;;;;22.81;52.13;101422.09;5034955;28;20026;-54
2022/06/29 07:11:20;;;;;;;2.63;0.60;;;24.20;64.10;;;22.82;52.31;101422.94;5035369;28;20041;-55
2022/06/29 07:13:46;;;;;;;1.10;0.90;;;24.60;87.20;;;22.82;52.27;101428.50;5034095;28;20052;-56
2022/06/29 07:16:13;;;;;;;2.42;0.80;;;24.40;87.10;;;22.81;52.21;101421.22;5035159;28;20487;-56
2022/06/29 07:18:39;;;;;;;1.67;0.90;;;24.00;87.30;;;22.82;52.70;101426.56;5035013;28;20484;-55
2022/06/29 07:21:05;;;;;;;1.58;1.00;;;24.60;87.70;;;22.81;52.67;101424.00;5034862;28;20121;-56
2022/06/29 07:23:30;;;;;;;1.63;1.00;;;24.10;87.40;;;22.79;52.80;101418.69;5035016;28;20128;-55
2022/06/29 07:25:56;;;;;;;0.80;0.80;;;24.00;87.10;;;22.79;52.65;101417.84;5033131;28;20048;-55
2022/06/29 07:28:22;;;;;;;2.70;1.00;;;24.40;87.60;;;22.80;52.61;101422.31;5034328;28;20065;-56
2022/06/29 07:30:48;;;;;;;1.10;0.80;;;24.10;87.30;;;22.78;52.52;101417.00;5034770;28;20435;-56
2022/06/29 07:33:14;;;;;;;0.98;0.63;;;24.00;87.20;;;22.79;52.49;101415.06;5034730;28;20068;-46
2022/06/29 07:35:40;;;;;;;1.65;0.80;;;24.40;87.40;;;22.81;52.13;101419.31;5034674;28;20065;-45
2022/06/29 07:38:07;;;;;;;3.13;0.90;;;24.50;87.00;;;22.82;52.44;101415.47;5034835;28;20037;-46
2022/06/29 07:40:33;;;;;;;1.02;0.90;;;24.50;87.50;;;22.84;52.44;101413.31;5034513;28;20412;-46
2022/06/29 07:42:59;;;;;;;2.13;0.95;;;24.20;59.80;;;22.86;52.38;101419.50;5034505;28;20051;-45
2022/06/29 07:45:25;;;;;;;2.00;0.80;;;;;;;22.86;52.41;101418.66;5034374;28;20532;-46
2022/06/29 07:47:52;;;;;;;2.33;0.98;;;;;;;22.85;52.38;101420.56;5034392;28;20040;-44
2022/06/29 07:50:18;;;;;;;1.73;0.90;;;24.10;86.30;;;22.87;52.31;101418.41;5034329;28;20439;-45
2022/06/29 07:52:43;;;;;;;1.10;0.85;;;24.30;87.90;;;22.85;52.52;101409.47;5034366;28;20129;-44
2022/06/29 07:55:09;;;;;;;2.80;0.82;;;24.20;68.60;;;22.86;52.51;101419.50;5034276;28;20049;-44
2022/06/29 07:57:36;;;;;;;3.28;1.10;;;24.00;70.80;;;22.88;52.33;101414.56;5034215;28;20120;-46
2022/06/29 08:00:05;;;;;;;1.23;0.82;;;24.60;69.10;;;22.89;52.23;101418.19;5034144;28;20037;-44
2022/06/29 08:02:30;;;;;;;2.17;1.13;;;24.00;87.80;;;22.90;52.44;101417.09;5034268;28;20466;-44
2022/06/29 08:04:58;;;;;;;1.23;0.77;;;24.00;87.60;;;22.90;52.44;101428.19;5034037;28;20042;-44
2022/06/29 08:07:23;;;;;;;1.65;1.00;;;24.60;87.50;;;22.91;52.28;101418.78;5033939;28;20033;-44
2022/06/29 08:09:49;;;;;;;3.95;1.08;;;;;;;22.93;52.67;101427.72;5034022;28;20033;-44
2022/06/29 08:12:16;;;;;;;3.95;1.00;;;24.40;71.70;;;22.97;52.92;101417.88;5033868;28;20045;-44
2022/06/29 08:14:42;;;;;;;2.65;1.30;;;24.30;88.50;;;22.97;52.87;101423.44;5033871;28;20399;-45
2022/06/29 08:17:08;;;;;;;2.83;1.17;;;24.80;88.70;;;22.99;52.87;101426.81;5033871;28;20040;-44
2022/06/29 08:19:33;;;;;;;3.90;1.13;;;24.70;85.70;;;22.99;52.96;101424.03;5033641;28;20037;-44
2022/06/29 08:21:59;;;;;;;1.73;1.02;;;24.50;71.60;;;23.00;52.76;101417.41;5033695;28;20109;-44
2022/06/29 08:24:27;;;;;;;4.50;1.30;;;;;;;23.01;52.88;101416.34;5033646;28;20065;-44
2022/06/29 08:26:53;;;;;;;2.95;1.63;;;24.60;88.30;;;23.03;52.62;101416.97;5033583;28;20498;-44
2022/06/29 08:29:20;;;;;;;4.45;1.20;;;;;;;23.04;53.01;101413.13;5033698;28;20041;-56
2022/06/29 08:31:46;;;;;;;1.50;1.10;;;24.70;88.40;;;23.05;53.10;101414.78;5033536;28;20026;-56
2022/06/29 08:34:21;;;;;;;3.33;1.20;;;24.60;88.20;;;23.05;52.85;101414.78;5033421;28;20064;-55
2022/06/29 08:36:47;;;;;;;2.50;1.02;;;;;;;23.06;52.95;101409.03;5033451;28;20113;-55
2022/06/29 08:39:13;;;;;;;4.75;1.33;;;;;;;23.08;53.20;101408.78;5033314;28;20029;-56
2022/06/29 08:41:41;;;;;;;3.05;1.10;;;24.50;57.10;;;23.08;54.05;101408.78;5033367;28;20507;-54
2022/06/29 08:44:07;;;;;;;5.03;1.17;;;24.80;90.00;;;23.08;54.12;101409.63;5033576;28;20030;-56
2022/06/29 08:46:32;;;;;;;1.08;0.88;;;24.50;89.80;;;23.10;54.29;101409.41;5032097;28;20029;-55
2022/06/29 08:48:59;;;;;;;1.92;1.08;;;24.80;89.60;;;23.10;54.22;101407.47;5033331;28;20384;-54
2022/06/29 08:51:32;;;;;;;1.67;1.10;;;24.50;57.60;;;23.13;54.49;101408.97;5033455;28;20369;-54
2022/06/29 08:54:01;;;;;;;1.50;1.00;;;24.60;89.50;;;23.16;55.07;101406.53;5033175;28;20120;-55
2022/06/29 08:56:28;;;;;;;2.03;1.13;;;25.00;90.10;;;23.17;55.09;101404.63;5033092;28;20063;-56
2022/06/29 08:58:54;;;;;;;3.40;0.70;;;24.50;70.20;;;23.20;55.27;101401.38;5031599;28;20080;-56
2022/06/29 09:01:20;;;;;;;1.10;0.90;;;24.50;89.60;;;23.23;55.05;101412.03;5032922;28;20030;-55
2022/06/29 09:03:46;;;;;;;4.63;1.30;;;24.70;90.00;;;23.26;55.23;101397.69;5032603;28;20060;-55
2022/06/29 09:06:11;;;;;;;2.75;1.30;;;24.80;85.90;;;23.29;55.13;101397.22;5031720;28;20029;-44
2022/06/29 09:08:37;;;;;;;2.88;1.00;;;;;;;23.33;54.98;101400.38;5032747;28;20064;-45
2022/06/29 09:11:30;;;;;;;2.65;0.95;;;24.90;69.30;;;23.37;55.03;101396.91;5033025;28;20025;-45
2022/06/29 09:14:19;;;;;;;2.03;1.23;;;25.10;69.50;;;23.41;55.04;101394.53;5032767;28;20042;-45
2022/06/29 09:16:59;;;;;;;1.85;0.95;;;24.80;89.80;;;23.44;55.22;101396.84;5032764;28;20517;-45
2022/06/29 09:19:45;;;;;;;1.50;0.90;;;25.10;90.00;;;23.47;55.15;101390.81;5032470;28;20044;-45
2022/06/29 09:22:11;;;;;;;3.88;1.05;;;24.80;90.00;;;23.51;54.83;101398.47;5032440;28;20033;-45
2022/06/29 09:24:38;;;;;;;2.35;1.20;;;;;;;23.55;55.04;101393.28;5032517;28;20404;-45
2022/06/29 09:27:07;;;;;;;2.22;0.80;;;24.80;75.20;;;23.59;54.84;101391.75;5032354;28;20044;-44
2022/06/29 09:29:44;;;;;;;4.10;0.90;;;25.10;89.50;;;23.61;54.84;101392.34;5032333;28;20392;-46
2022/06/29 09:32:19;;;;;;;3.17;0.85;;;25.20;89.30;;;23.64;54.80;101397.44;5032511;28;20068;-45
2022/06/29 09:34:48;;;;;;;1.65;0.85;;;25.10;89.20;;;23.70;54.65;101400.13;5031447;28;20095;-45
2022/06/29 09:37:31;;;;;;;2.38;1.00;;;25.30;89.30;;;23.73;54.68;101396.88;5032465;28;20025;-46
2022/06/29 09:39:57;;;;;;;5.13;1.20;;;25.30;73.30;;;23.76;54.72;101393.63;5032399;28;20025;-46
2022/06/29 09:42:26;;;;;;;2.22;0.95;;;25.60;89.50;;;23.79;54.74;101393.16;5031135;28;20045;-56
2022/06/29 09:44:53;;;;;;;1.45;0.80;;;25.30;89.00;;;23.81;54.28;101384.59;5032328;28;20136;-53
2022/06/29 09:47:21;;;;;;;1.58;0.82;;;25.60;89.10;;;23.84;54.28;101392.47;5032667;28;20033;-57
2022/06/29 09:49:52;;;;;;;1.88;0.80;;;25.30;57.50;;;23.89;54.30;101386.19;5031732;28;20036;-55
2022/06/29 09:52:19;;;;;;;2.58;1.05;;;25.50;79.50;;;23.92;54.55;101388.50;5032126;28;20030;-55
2022/06/29 09:54:54;;;;;;;1.15;0.90;;;25.60;88.80;;;23.94;54.11;101383.53;5032110;28;20034;-55
2022/06/29 09:57:25;;;;;;;1.95;1.13;;;25.20;88.50;;;23.97;54.08;101386.69;5032376;28;20449;-56
2022/06/29 10:02:51;;;;;;;4.03;1.05;;;25.50;89.80;;;24.04;54.73;101386.59;5031901;28;20626;-46
2022/06/29 10:05:23;;;;;;;1.80;1.00;;;25.50;57.30;;;24.03;54.38;101380.19;5031691;28;20091;-47
2022/06/29 10:07:54;;;;;;;1.73;0.70;;;25.60;56.40;;;24.06;53.53;101381.63;5032203;28;20038;-46
2022/06/29 10:10:23;;;;;;;2.30;1.20;;;25.60;56.30;;;24.09;53.24;101381.16;5031760;28;20038;-45
2022/06/29 10:16:02;;;;;;;3.17;0.90;;;;;;;24.15;52.72;101374.69;5031712;28;20523;-46
2022/06/29 10:18:49;;;;;;;1.90;0.90;;;25.50;77.30;;;24.18;52.52;101388.94;5032143;28;20112;-45
2022/06/29 10:21:22;;;;;;;3.03;1.35;;;25.70;55.70;;;24.21;52.38;101373.72;5030648;28;20483;-45
2022/06/29 10:24:02;;;;;;;2.10;0.80;;;25.90;87.00;;;24.23;52.15;101368.78;5031687;28;20030;-44
2022/06/29 10:26:28;;;;;;;2.65;0.93;;;25.90;86.90;;;24.25;52.32;101364.69;5030586;28;20034;-45
2022/06/29 10:28:55;;;;;;;1.13;0.70;;;25.50;75.10;;;24.28;52.21;101368.91;5032044;28;20377;-46
2022/06/29 10:31:52;;;;;;;1.88;0.93;;;26.00;86.70;;;24.30;51.84;101367.59;5030522;28;20487;-45
2022/06/29 10:34:37;;;;;;;2.15;0.70;;;25.60;72.50;;;24.34;51.95;101373.53;5031732;28;20116;-46
2022/06/29 10:37:15;;;;;;;1.25;0.80;;;25.70;66.60;;;24.37;51.80;101372.19;5032076;28;20467;-53
2022/06/29 10:39:49;;;;;;;1.20;0.90;;;25.60;86.20;;;24.39;51.50;101372.78;5031743;28;20391;-53
2022/06/29 10:45:25;;;;;;;2.30;0.80;;;26.10;85.40;;;24.43;51.51;101362.88;5031823;28;20128;-51